Time;durP1;ratioP1;P1;durP2;ratioP2;P2;SDS_P1;SDS_P2;PMS_P1;PMS_P2;Temp;Humidity;BMP_temperature;BMP_pressure;BME280_temperature;BME280_humidity;BME280_pressure;Samples;Min_cycle;Max_cycle;Signal;HPM_P1;HPM_P2
2021/03/19 00:00:14;;;;;;;15.30;7.60;;;2.30;99.90;;;;;;5015800;28;20229;-75
2021/03/19 00:02:41;;;;;;;9.75;8.23;;;2.40;99.90;;;;;;5015733;28;20249;-76
2021/03/19 00:05:13;;;;;;;9.48;6.47;;;2.40;99.90;;;;;;5017058;28;20190;-76
2021/03/19 00:07:45;;;;;;;9.13;5.88;;;2.20;99.90;;;;;;5015130;28;20190;-76
2021/03/19 00:10:13;;;;;;;8.07;6.55;;;2.10;99.90;;;;;;5015199;28;20210;-76
2021/03/19 00:12:41;;;;;;;10.20;7.45;;;2.10;99.90;;;;;;5015675;28;20630;-76
2021/03/19 00:15:10;;;;;;;9.93;6.85;;;2.00;99.90;;;;;;5015507;28;20680;-76
2021/03/19 00:17:37;;;;;;;11.30;8.35;;;1.90;99.90;;;;;;5015355;28;20198;-74
2021/03/19 00:20:25;;;;;;;13.05;8.93;;;1.80;99.90;;;;;;5015268;28;20591;-74
2021/03/19 00:22:52;;;;;;;12.07;8.15;;;1.60;99.90;;;;;;5014300;28;20218;-75
2021/03/19 00:25:20;;;;;;;17.30;11.00;;;1.60;99.90;;;;;;5013691;28;20709;-75
2021/03/19 00:27:47;;;;;;;17.23;9.38;;;1.60;99.90;;;;;;5015274;28;20186;-77
2021/03/19 00:30:15;;;;;;;15.13;9.43;;;1.60;99.90;;;;;;5015024;28;20743;-75
2021/03/19 00:32:45;;;;;;;18.27;11.02;;;1.60;99.90;;;;;;5015046;28;20209;-75
2021/03/19 00:35:12;;;;;;;15.60;10.73;;;1.60;99.90;;;;;;5015041;28;20260;-77
2021/03/19 00:37:41;;;;;;;15.20;9.32;;;1.70;99.90;;;;;;5015160;28;20261;-75
2021/03/19 00:40:10;;;;;;;19.30;11.07;;;1.70;99.90;;;;;;5015093;28;20233;-76
2021/03/19 00:42:39;;;;;;;11.07;7.82;;;1.70;99.90;;;;;;5014770;28;20228;-75
2021/03/19 00:45:09;;;;;;;17.45;11.23;;;1.70;99.90;;;;;;5014965;28;20241;-75
2021/03/19 00:47:36;;;;;;;20.30;12.43;;;1.60;99.90;;;;;;5014496;28;20181;-76
2021/03/19 00:50:06;;;;;;;14.27;10.07;;;1.60;99.90;;;;;;5014236;28;20198;-76
2021/03/19 00:52:34;;;;;;;15.05;10.07;;;1.60;99.90;;;;;;5014636;28;20400;-75
2021/03/19 00:55:03;;;;;;;18.90;11.45;;;1.60;99.90;;;;;;5015015;28;20190;-75
2021/03/19 00:57:30;;;;;;;21.13;14.35;;;1.60;99.90;;;;;;4998307;28;20191;-76
2021/03/19 00:59:57;;;;;;;22.58;9.45;;;1.60;99.90;;;;;;5015481;28;20186;-75
2021/03/19 01:02:24;;;;;;;13.65;10.30;;;1.60;99.90;;;;;;5012829;28;20218;-76
2021/03/19 01:04:52;;;;;;;16.83;10.75;;;1.60;99.90;;;;;;4998232;28;20213;-76
2021/03/19 01:07:19;;;;;;;18.65;10.55;;;1.60;99.90;;;;;;5018705;28;20178;-74
2021/03/19 01:09:47;;;;;;;15.02;9.02;;;1.60;99.90;;;;;;5018322;28;20253;-73
2021/03/19 01:12:15;;;;;;;14.52;8.55;;;1.70;99.90;;;;;;5018779;28;20217;-75
2021/03/19 01:14:43;;;;;;;18.48;13.23;;;1.60;99.90;;;;;;5016851;28;20607;-76
2021/03/19 01:17:10;;;;;;;15.45;9.55;;;1.50;99.90;;;;;;5017338;28;20179;-75
2021/03/19 01:19:37;;;;;;;11.25;5.45;;;1.40;99.90;;;;;;5018287;28;20186;-76
2021/03/19 01:22:04;;;;;;;14.48;9.57;;;1.40;99.90;;;;;;5017223;28;20292;-76
2021/03/19 01:24:31;;;;;;;8.32;6.68;;;1.30;99.90;;;;;;5019207;28;20553;-76
2021/03/19 01:26:58;;;;;;;9.85;5.38;;;1.40;99.90;;;;;;5015405;28;20633;-76
2021/03/19 01:29:26;;;;;;;13.88;7.70;;;1.40;99.90;;;;;;5015204;28;20197;-75
2021/03/19 01:31:54;;;;;;;9.63;6.80;;;1.40;99.90;;;;;;5014758;28;20213;-76
2021/03/19 01:34:21;;;;;;;12.82;6.68;;;1.30;99.90;;;;;;5015958;28;20194;-76
2021/03/19 01:36:48;;;;;;;12.23;8.40;;;1.20;99.90;;;;;;5017998;28;20178;-76
2021/03/19 01:39:15;;;;;;;12.15;6.85;;;1.10;99.90;;;;;;5017645;28;20237;-76
2021/03/19 01:41:45;;;;;;;7.18;5.00;;;1.10;99.90;;;;;;5017273;28;20224;-75
2021/03/19 01:44:13;;;;;;;8.82;5.07;;;1.00;99.90;;;;;;5017075;28;20236;-76
2021/03/19 01:47:18;;;;;;;6.32;5.35;;;0.90;99.90;;;;;;5016971;28;20284;-76
2021/03/19 01:50:23;;;;;;;9.95;8.00;;;0.90;99.90;;;;;;5017641;28;20212;-76
2021/03/19 01:53:42;;;;;;;5.47;4.57;;;0.80;99.90;;;;;;5017724;28;20248;-75
2021/03/19 01:56:46;;;;;;;4.38;3.92;;;0.80;99.90;;;;;;4936978;29;20774;-74
2021/03/19 01:59:50;;;;;;;4.22;3.83;;;0.70;99.90;;;;;;4936742;29;20200;-76
2021/03/19 02:02:54;;;;;;;12.57;6.22;;;0.80;99.90;;;;;;5012844;28;20716;-75
2021/03/19 02:05:59;;;;;;;10.85;7.93;;;0.80;99.90;;;;;;5016968;28;20178;-76
2021/03/19 02:09:06;;;;;;;6.68;4.82;;;0.80;99.90;;;;;;5016136;28;20200;-76
2021/03/19 02:12:22;;;;;;;7.72;4.28;;;0.80;99.90;;;;;;5015964;28;20210;-76
2021/03/19 02:15:26;;;;;;;10.00;5.45;;;0.80;99.90;;;;;;4936281;29;20695;-76
2021/03/19 02:18:32;;;;;;;10.63;3.83;;;0.80;99.90;;;;;;5016107;28;20186;-75
2021/03/19 02:21:37;;;;;;;9.93;6.63;;;0.90;99.90;;;;;;5019138;28;20178;-74
2021/03/19 02:24:41;;;;;;;7.72;6.93;;;0.90;99.90;;;;;;5019807;28;20707;-73
2021/03/19 02:27:46;;;;;;;10.75;6.60;;;0.90;99.90;;;;;;5019070;28;20178;-76
2021/03/19 02:30:50;;;;;;;10.95;5.47;;;0.90;99.90;;;;;;5020102;28;20212;-75
2021/03/19 02:33:18;;;;;;;10.18;7.15;;;0.80;99.90;;;;;;5015917;28;20210;-76
2021/03/19 02:35:53;;;;;;;9.68;5.45;;;0.80;99.90;;;;;;5014807;28;20190;-76
2021/03/19 02:38:20;;;;;;;9.82;6.55;;;0.70;99.90;;;;;;5015677;28;20183;-75
2021/03/19 02:40:48;;;;;;;7.63;5.07;;;0.70;99.90;;;;;;5015921;28;20190;-75
2021/03/19 02:43:17;;;;;;;7.15;5.07;;;0.60;99.90;;;;;;5015283;28;20748;-76
2021/03/19 02:45:44;;;;;;;7.28;5.40;;;0.60;99.90;;;;;;5014449;28;20232;-76
2021/03/19 02:48:13;;;;;;;9.00;6.97;;;0.60;99.90;;;;;;5015393;28;20174;-76
2021/03/19 02:50:42;;;;;;;10.60;6.05;;;0.60;99.90;;;;;;5014982;28;20210;-75
2021/03/19 02:53:13;;;;;;;12.77;7.20;;;0.50;99.90;;;;;;5015086;28;20198;-76
2021/03/19 02:55:40;;;;;;;8.00;7.25;;;0.50;99.90;;;;;;5014737;28;20174;-76
2021/03/19 02:58:08;;;;;;;3.85;2.08;;;0.50;99.90;;;;;;5015029;28;20655;-76
2021/03/19 03:00:35;;;;;;;9.43;7.00;;;0.60;99.90;;;;;;5015366;28;20249;-76
2021/03/19 03:03:03;;;;;;;10.55;6.57;;;0.50;99.90;;;;;;5015030;28;20220;-74
2021/03/19 03:05:31;;;;;;;14.77;10.50;;;0.50;99.90;;;;;;5015711;28;20183;-75
2021/03/19 03:08:00;;;;;;;13.70;7.18;;;0.40;99.90;;;;;;5014976;28;20261;-76
2021/03/19 03:10:29;;;;;;;15.27;7.85;;;0.40;99.90;;;;;;5015059;28;20230;-75
2021/03/19 03:13:07;;;;;;;11.85;8.27;;;0.40;99.90;;;;;;5015269;28;20212;-75
2021/03/19 03:15:34;;;;;;;12.13;9.02;;;0.30;99.90;;;;;;5014871;28;20252;-76
2021/03/19 03:18:02;;;;;;;10.52;7.03;;;0.30;99.90;;;;;;5016116;28;20286;-75
2021/03/19 03:20:31;;;;;;;12.57;8.45;;;0.20;99.90;;;;;;5014779;28;20202;-76
2021/03/19 03:23:00;;;;;;;16.13;7.03;;;0.20;99.90;;;;;;5015935;28;20292;-75
2021/03/19 03:25:27;;;;;;;13.63;7.75;;;0.20;99.90;;;;;;5014642;28;20560;-76
2021/03/19 03:27:55;;;;;;;14.05;9.18;;;0.20;99.90;;;;;;5016373;28;20560;-76
2021/03/19 03:30:26;;;;;;;15.18;9.00;;;0.20;99.90;;;;;;5016076;28;20232;-76
2021/03/19 03:32:54;;;;;;;17.48;10.90;;;0.30;99.90;;;;;;5016129;28;20289;-76
2021/03/19 03:35:23;;;;;;;13.65;9.00;;;0.40;99.90;;;;;;4997736;28;20266;-76
2021/03/19 03:37:50;;;;;;;14.63;9.30;;;0.40;99.90;;;;;;5015456;28;20190;-76
2021/03/19 03:40:22;;;;;;;17.95;9.75;;;0.40;99.90;;;;;;5015223;28;20175;-76
2021/03/19 03:42:49;;;;;;;26.40;10.13;;;0.40;99.90;;;;;;5015093;28;20209;-76
2021/03/19 03:45:18;;;;;;;14.18;9.70;;;0.40;99.90;;;;;;5014956;28;20244;-75
2021/03/19 03:47:45;;;;;;;17.35;9.77;;;0.30;99.90;;;;;;5014956;28;20185;-75
2021/03/19 03:50:15;;;;;;;25.50;9.38;;;0.20;99.90;;;;;;5014517;28;20202;-76
2021/03/19 03:53:03;;;;;;;31.92;15.60;;;0.10;99.90;;;;;;5014661;28;20332;-76
2021/03/19 03:55:31;;;;;;;17.73;11.70;;;0.00;99.90;;;;;;5014407;28;20229;-75
2021/03/19 03:57:58;;;;;;;20.08;11.45;;;0.00;99.90;;;;;;5013777;28;20277;-75
2021/03/19 04:00:25;;;;;;;17.23;9.55;;;-0.10;99.90;;;;;;5014786;28;20396;-76
2021/03/19 04:02:56;;;;;;;15.95;10.68;;;-0.10;99.90;;;;;;5103357;23;20315;-68
2021/03/19 04:05:27;;;;;;;20.27;9.70;;;-0.10;99.90;;;;;;5053130;28;20195;-66
2021/03/19 04:07:55;;;;;;;16.88;10.98;;;-0.10;99.90;;;;;;5034237;28;20255;-67
2021/03/19 04:10:23;;;;;;;16.90;10.07;;;-0.10;99.90;;;;;;5034422;28;20562;-67
2021/03/19 04:12:53;;;;;;;17.15;8.15;;;-0.20;99.90;;;;;;5034353;28;20228;-67
2021/03/19 04:15:22;;;;;;;23.08;11.02;;;-0.20;99.90;;;;;;5032728;28;20481;-66
2021/03/19 04:17:55;;;;;;;15.93;9.07;;;-0.20;99.90;;;;;;5032986;28;20185;-66
2021/03/19 04:20:25;;;;;;;16.25;11.18;;;-0.20;99.90;;;;;;5034198;28;20265;-67
2021/03/19 04:22:52;;;;;;;33.55;14.10;;;-0.30;99.90;;;;;;5034057;28;20201;-66
2021/03/19 04:25:21;;;;;;;21.70;10.73;;;-0.20;99.90;;;;;;5033821;28;20189;-67
2021/03/19 04:27:51;;;;;;;12.48;8.75;;;-0.30;99.90;;;;;;5033282;28;20618;-67
2021/03/19 04:30:23;;;;;;;13.20;9.75;;;-0.30;99.90;;;;;;5034092;28;20202;-65
2021/03/19 04:32:52;;;;;;;22.90;10.50;;;-0.30;99.90;;;;;;5033392;28;20251;-66
2021/03/19 04:35:22;;;;;;;18.10;10.25;;;-0.30;99.90;;;;;;5033217;28;20178;-67
2021/03/19 04:37:51;;;;;;;27.42;12.93;;;-0.20;99.90;;;;;;5033257;28;20197;-66
2021/03/19 04:40:20;;;;;;;17.80;11.10;;;-0.10;99.90;;;;;;5033417;28;20201;-66
2021/03/19 04:42:47;;;;;;;25.48;11.32;;;0.00;99.90;;;;;;5033606;28;20181;-67
2021/03/19 04:45:16;;;;;;;19.23;12.32;;;0.00;99.90;;;;;;5033155;28;20232;-66
2021/03/19 04:47:44;;;;;;;21.88;9.43;;;0.00;99.90;;;;;;5033117;28;20216;-67
2021/03/19 04:50:15;;;;;;;16.25;11.68;;;0.00;99.90;;;;;;5015123;28;20213;-66
2021/03/19 04:52:43;;;;;;;24.92;12.50;;;0.10;99.90;;;;;;5033129;28;20182;-66
2021/03/19 04:55:12;;;;;;;19.95;11.35;;;0.00;99.90;;;;;;5033130;28;20227;-66
2021/03/19 04:57:39;;;;;;;15.85;11.20;;;-0.10;99.90;;;;;;5033241;28;20229;-67
2021/03/19 05:00:09;;;;;;;28.10;7.85;;;-0.20;99.90;;;;;;5033163;28;20181;-66
2021/03/19 05:02:39;;;;;;;16.83;7.32;;;-0.30;99.90;;;;;;5032896;28;20280;-67
2021/03/19 05:05:11;;;;;;;10.18;8.07;;;-0.30;99.90;;;;;;5037159;28;20559;-67
2021/03/19 05:07:40;;;;;;;21.38;11.10;;;-0.30;99.90;;;;;;5020324;28;20309;-67
2021/03/19 05:10:10;;;;;;;23.92;12.43;;;-0.30;99.90;;;;;;5033147;28;20317;-67
2021/03/19 05:12:37;;;;;;;8.35;5.40;;;-0.40;99.90;;;;;;5032367;28;20193;-66
2021/03/19 05:15:08;;;;;;;9.82;4.95;;;-0.40;99.90;;;;;;5033427;28;20177;-67
2021/03/19 05:17:35;;;;;;;16.30;7.72;;;-0.40;99.90;;;;;;5033617;28;20220;-67
2021/03/19 05:20:06;;;;;;;14.05;9.32;;;-0.40;99.90;;;;;;5033494;28;20256;-67
2021/03/19 05:22:34;;;;;;;15.00;7.80;;;-0.50;99.90;;;;;;5033971;28;20231;-66
2021/03/19 05:25:06;;;;;;;12.20;7.22;;;-0.50;99.90;;;;;;5033851;28;20174;-65
2021/03/19 05:27:33;;;;;;;38.13;13.40;;;-0.40;99.90;;;;;;5033387;28;20236;-69
2021/03/19 05:30:00;;;;;;;15.93;10.23;;;-0.40;99.90;;;;;;5033647;28;20193;-67
2021/03/19 05:32:28;;;;;;;11.55;8.82;;;-0.40;99.90;;;;;;5032887;28;20181;-67
2021/03/19 05:34:55;;;;;;;23.05;9.75;;;-0.40;99.90;;;;;;5032839;28;20224;-66
2021/03/19 05:37:23;;;;;;;13.32;10.70;;;-0.30;99.90;;;;;;5032776;28;20209;-67
2021/03/19 05:39:51;;;;;;;22.17;9.20;;;-0.30;99.90;;;;;;5032596;28;20208;-65
2021/03/19 05:42:25;;;;;;;33.53;18.02;;;-0.30;99.90;;;;;;5031367;28;20293;-66
2021/03/19 05:44:59;;;;;;;45.47;22.30;;;-0.40;99.90;;;;;;5032636;28;20205;-65
2021/03/19 05:47:29;;;;;;;26.02;11.57;;;-0.30;99.90;;;;;;5032764;28;20204;-66
2021/03/19 05:50:00;;;;;;;33.78;16.05;;;-0.30;99.90;;;;;;5033152;28;20704;-66
2021/03/19 05:52:33;;;;;;;44.33;18.80;;;-0.20;99.90;;;;;;5032522;28;20185;-65
2021/03/19 05:55:14;;;;;;;13.45;11.88;;;0.00;99.90;;;;;;5032499;28;20177;-66
2021/03/19 05:57:42;;;;;;;16.45;9.48;;;0.20;99.90;;;;;;5032471;28;20205;-66
2021/03/19 06:00:19;;;;;;;14.43;10.20;;;0.20;99.90;;;;;;5032319;28;20193;-67
2021/03/19 06:02:47;;;;;;;19.83;11.30;;;0.00;99.90;;;;;;5031054;28;20205;-66
2021/03/19 06:05:18;;;;;;;15.63;9.25;;;0.00;99.90;;;;;;5032640;28;20370;-67
2021/03/19 06:07:49;;;;;;;15.85;10.45;;;0.10;99.90;;;;;;5032196;28;20213;-67
2021/03/19 06:10:30;;;;;;;14.15;9.52;;;0.00;99.90;;;;;;5014869;28;20701;-67
2021/03/19 06:13:11;;;;;;;20.33;10.32;;;0.00;99.90;;;;;;5014655;28;20190;-67
2021/03/19 06:15:42;;;;;;;29.30;13.13;;;0.00;99.90;;;;;;5032712;28;20690;-66
2021/03/19 06:18:21;;;;;;;18.38;10.52;;;0.10;99.90;;;;;;5032288;28;20197;-67
2021/03/19 06:20:56;;;;;;;19.40;11.32;;;0.10;99.90;;;;;;5032477;28;20193;-66
2021/03/19 06:23:25;;;;;;;18.20;11.77;;;0.00;99.90;;;;;;5036347;28;20197;-67
2021/03/19 06:26:03;;;;;;;31.05;13.52;;;0.00;99.90;;;;;;5036625;28;20442;-67
2021/03/19 06:28:33;;;;;;;20.42;11.70;;;0.00;99.90;;;;;;5035211;28;20648;-65
2021/03/19 06:31:21;;;;;;;13.88;8.63;;;0.10;99.90;;;;;;5021235;28;20202;-67
2021/03/19 06:34:05;;;;;;;11.30;7.55;;;0.10;99.90;;;;;;5016104;28;20194;-67
2021/03/19 06:36:34;;;;;;;15.95;12.45;;;0.20;99.90;;;;;;5015967;28;20213;-67
2021/03/19 06:39:08;;;;;;;19.83;10.00;;;0.20;99.90;;;;;;5016168;28;20559;-67
2021/03/19 06:41:38;;;;;;;18.40;10.45;;;0.20;99.90;;;;;;5016300;28;20185;-67
2021/03/19 06:44:19;;;;;;;18.45;11.18;;;0.20;99.90;;;;;;5016977;28;20252;-65
2021/03/19 06:46:50;;;;;;;12.52;9.95;;;0.10;99.90;;;;;;5016910;28;20419;-68
2021/03/19 06:49:21;;;;;;;16.63;10.75;;;0.10;99.90;;;;;;5016961;28;20179;-66
2021/03/19 06:51:51;;;;;;;16.50;12.15;;;0.30;99.90;;;;;;5016730;28;20171;-65
2021/03/19 06:54:21;;;;;;;9.70;6.10;;;0.50;99.90;;;;;;5021225;28;20174;-67
2021/03/19 06:57:11;;;;;;;13.43;8.82;;;0.50;99.90;;;;;;5052327;28;20212;-67
2021/03/19 06:59:44;;;;;;;17.23;11.65;;;0.80;99.90;;;;;;5040912;28;20215;-67
2021/03/19 07:02:42;;;;;;;19.50;10.82;;;1.00;99.90;;;;;;5064397;28;20173;-67
2021/03/19 07:05:21;;;;;;;16.13;9.43;;;1.00;99.90;;;;;;5060627;28;20225;-67
2021/03/19 07:08:06;;;;;;;12.25;8.52;;;0.80;99.90;;;;;;5061470;28;20177;-67
2021/03/19 07:10:46;;;;;;;16.90;12.95;;;0.70;99.90;;;;;;5058266;28;20638;-67
2021/03/19 07:13:29;;;;;;;16.90;9.43;;;0.80;99.90;;;;;;5061820;28;20184;-67
2021/03/19 07:16:06;;;;;;;35.97;24.65;;;0.70;99.90;;;;;;5057991;28;20278;-67
2021/03/19 07:18:55;;;;;;;17.83;15.70;;;0.80;99.90;;;;;;5057580;28;20246;-66
2021/03/19 07:21:58;;;;;;;21.73;14.73;;;0.90;99.90;;;;;;5053718;28;20205;-64
2021/03/19 07:24:52;;;;;;;26.40;18.58;;;0.90;99.90;;;;;;5054850;28;20680;-66
2021/03/19 07:27:43;;;;;;;26.60;21.48;;;1.10;99.90;;;;;;5056320;28;20287;-67
2021/03/19 07:30:28;;;;;;;19.13;12.82;;;1.20;99.90;;;;;;5056056;28;20240;-67
2021/03/19 07:33:22;;;;;;;8.68;6.30;;;1.10;99.90;;;;;;5056785;28;20586;-67
2021/03/19 07:36:08;;;;;;;14.20;8.85;;;1.10;99.90;;;;;;5057069;28;20209;-65
2021/03/19 07:39:03;;;;;;;9.48;8.07;;;1.10;99.90;;;;;;5055933;28;20189;-66
2021/03/19 07:41:46;;;;;;;19.77;11.43;;;1.10;99.90;;;;;;5036238;28;20186;-66
2021/03/19 07:44:26;;;;;;;17.98;10.13;;;1.20;99.90;;;;;;5036962;28;20629;-65
2021/03/19 07:47:07;;;;;;;10.52;7.40;;;1.10;99.90;;;;;;5027545;28;20583;-67
2021/03/19 07:49:54;;;;;;;20.83;10.18;;;1.20;99.90;;;;;;5033950;28;20192;-66
2021/03/19 07:52:33;;;;;;;11.85;9.77;;;1.40;99.90;;;;;;5037584;28;20193;-66
2021/03/19 07:55:07;;;;;;;17.77;7.95;;;1.50;99.90;;;;;;5036779;28;20195;-66
2021/03/19 07:57:43;;;;;;;15.98;7.05;;;1.50;99.90;;;;;;5018445;28;20210;-66
2021/03/19 08:00:18;;;;;;;11.38;9.93;;;1.50;99.90;;;;;;5017678;28;20197;-66
2021/03/19 08:02:57;;;;;;;9.50;7.07;;;1.50;99.90;;;;;;5029712;28;20205;-67
2021/03/19 08:05:30;;;;;;;13.50;7.00;;;1.60;99.90;;;;;;5037550;28;20645;-67
2021/03/19 08:08:18;;;;;;;14.43;9.25;;;1.60;99.90;;;;;;5037623;28;20601;-66
2021/03/19 08:11:05;;;;;;;16.38;8.65;;;1.50;99.90;;;;;;5024325;28;20218;-68
2021/03/19 08:13:43;;;;;;;19.08;8.55;;;1.70;99.90;;;;;;5034793;28;20213;-67
2021/03/19 08:16:19;;;;;;;12.48;6.65;;;1.90;99.90;;;;;;5039165;28;20258;-67
2021/03/19 08:19:00;;;;;;;12.80;8.45;;;1.90;99.90;;;;;;5038426;28;20192;-66
2021/03/19 08:21:38;;;;;;;10.05;7.35;;;2.00;99.90;;;;;;5034668;28;20707;-68
2021/03/19 08:24:32;;;;;;;10.48;7.03;;;2.00;99.90;;;;;;5035966;28;20213;-66
2021/03/19 08:27:11;;;;;;;14.50;6.53;;;2.20;99.90;;;;;;5022392;28;20617;-67
2021/03/19 08:29:48;;;;;;;13.43;7.43;;;2.40;99.90;;;;;;5017975;28;20185;-69
2021/03/19 08:32:27;;;;;;;14.25;7.53;;;2.40;99.90;;;;;;5039518;28;20272;-67
2021/03/19 08:35:06;;;;;;;16.70;5.28;;;2.20;99.90;;;;;;5035107;28;20571;-66
2021/03/19 08:37:41;;;;;;;9.98;6.80;;;2.10;99.90;;;;;;5015523;28;20590;-66
2021/03/19 08:40:17;;;;;;;7.30;6.32;;;2.00;99.90;;;;;;5014490;28;20205;-66
2021/03/19 08:42:47;;;;;;;14.30;7.38;;;1.90;99.90;;;;;;5014617;28;20616;-66
2021/03/19 08:45:21;;;;;;;20.63;7.97;;;1.90;99.90;;;;;;5016925;28;20209;-66
2021/03/19 08:47:50;;;;;;;24.05;7.43;;;1.90;99.90;;;;;;5014105;28;20178;-66
2021/03/19 08:50:33;;;;;;;12.35;8.68;;;1.80;99.90;;;;;;5013596;28;20201;-68
2021/03/19 08:53:13;;;;;;;11.70;6.60;;;1.80;99.90;;;;;;5014083;28;20229;-68
2021/03/19 08:55:43;;;;;;;17.85;10.15;;;1.90;99.90;;;;;;5013742;28;20174;-66
2021/03/19 08:58:48;;;;;;;9.57;6.85;;;1.80;99.90;;;;;;5030261;28;20200;-66
2021/03/19 09:01:47;;;;;;;11.85;7.50;;;1.80;99.90;;;;;;5010298;28;20231;-66
2021/03/19 09:04:15;;;;;;;11.80;6.60;;;1.90;99.90;;;;;;5029888;28;20584;-67
2021/03/19 09:07:20;;;;;;;9.43;5.80;;;2.10;99.90;;;;;;5035377;28;20213;-67
2021/03/19 09:09:49;;;;;;;6.80;5.95;;;2.30;99.90;;;;;;5036411;28;20181;-67
2021/03/19 09:12:22;;;;;;;13.40;7.07;;;2.40;99.90;;;;;;5036672;28;20540;-67
2021/03/19 09:15:21;;;;;;;8.60;6.38;;;2.40;99.90;;;;;;5035228;28;20209;-67
2021/03/19 09:17:55;;;;;;;11.93;6.35;;;2.50;99.90;;;;;;5036420;28;20173;-67
2021/03/19 09:20:46;;;;;;;5.40;4.90;;;2.70;99.90;;;;;;5036284;28;20187;-67
2021/03/19 09:23:20;;;;;;;9.57;5.65;;;2.70;99.90;;;;;;5033435;28;20197;-67
2021/03/19 09:25:54;;;;;;;11.23;8.55;;;2.80;99.90;;;;;;5034759;28;20232;-67
2021/03/19 09:28:31;;;;;;;9.13;5.13;;;2.80;99.90;;;;;;5035450;28;20173;-67
2021/03/19 09:31:10;;;;;;;5.28;3.83;;;2.60;99.90;;;;;;5034943;28;20204;-67
2021/03/19 09:34:13;;;;;;;5.05;4.57;;;2.50;99.90;;;;;;5034834;28;20200;-67
2021/03/19 09:37:08;;;;;;;12.13;6.00;;;2.60;99.90;;;;;;5021919;28;20225;-67
2021/03/19 09:39:56;;;;;;;10.85;4.13;;;2.80;99.90;;;;;;5034503;28;20669;-67
2021/03/19 09:42:57;;;;;;;10.05;5.78;;;3.00;99.90;;;;;;5037910;28;20204;-67
2021/03/19 09:45:47;;;;;;;9.23;5.60;;;3.20;99.90;;;;;;5037788;28;20228;-66
2021/03/19 09:48:29;;;;;;;11.55;7.38;;;3.20;99.90;;;;;;5016795;28;20554;-68
2021/03/19 09:51:29;;;;;;;6.32;4.13;;;3.10;99.90;;;;;;5015783;28;20620;-66
2021/03/19 09:53:56;;;;;;;12.45;5.90;;;3.10;99.90;;;;;;5033722;28;20197;-66
2021/03/19 09:56:29;;;;;;;6.72;4.70;;;3.30;99.90;;;;;;5037155;28;20631;-66
2021/03/19 09:58:58;;;;;;;10.05;4.20;;;3.50;99.90;;;;;;5037305;28;20174;-66
2021/03/19 10:01:39;;;;;;;4.05;2.00;;;3.90;99.90;;;;;;5036669;28;20181;-68
2021/03/19 10:04:08;;;;;;;13.63;5.65;;;4.20;99.90;;;;;;5102660;22;20300;-68
2021/03/19 10:06:41;;;;;;;8.57;4.40;;;4.30;99.90;;;;;;5057774;28;20588;-67
2021/03/19 10:09:16;;;;;;;6.72;3.08;;;4.20;99.90;;;;;;5031719;28;20612;-68
2021/03/19 10:12:05;;;;;;;4.35;2.40;;;4.00;99.90;;;;;;5048850;28;20197;-68
2021/03/19 10:14:35;;;;;;;7.32;5.30;;;3.80;99.90;;;;;;5048434;28;20189;-68
2021/03/19 10:17:17;;;;;;;3.40;2.58;;;3.40;99.90;;;;;;5049453;28;20205;-67
2021/03/19 10:19:47;;;;;;;4.78;3.20;;;3.20;99.90;;;;;;5049308;28;20178;-67
2021/03/19 10:22:45;;;;;;;5.22;3.80;;;3.30;99.90;;;;;;5048784;28;20326;-67
2021/03/19 10:25:19;;;;;;;4.85;4.35;;;3.60;99.90;;;;;;5027805;28;20192;-67
2021/03/19 10:28:07;;;;;;;6.40;4.90;;;3.60;99.90;;;;;;5041996;28;20630;-68
2021/03/19 10:30:38;;;;;;;5.45;2.95;;;3.60;99.90;;;;;;5040994;28;20197;-67
2021/03/19 10:33:13;;;;;;;5.78;4.65;;;3.50;99.90;;;;;;5021572;28;20239;-67
2021/03/19 10:35:47;;;;;;;3.92;3.55;;;3.30;99.90;;;;;;5041945;28;20207;-67
2021/03/19 10:38:22;;;;;;;9.43;4.97;;;3.40;99.90;;;;;;5037212;28;20192;-68
2021/03/19 10:40:56;;;;;;;5.65;4.00;;;3.70;99.90;;;;;;5018321;28;20276;-68
2021/03/19 10:43:28;;;;;;;7.07;6.47;;;4.10;99.90;;;;;;5035793;28;20181;-70
2021/03/19 10:46:02;;;;;;;5.22;2.60;;;4.60;99.90;;;;;;5035317;28;20252;-70
2021/03/19 10:48:39;;;;;;;3.75;2.90;;;4.80;99.90;;;;;;5035248;28;20626;-68
2021/03/19 10:51:15;;;;;;;4.00;3.58;;;4.80;99.90;;;;;;5035948;28;20281;-69
2021/03/19 10:53:55;;;;;;;6.43;2.40;;;5.20;99.90;;;;;;5035148;28;20193;-68
2021/03/19 10:56:24;;;;;;;3.75;2.47;;;5.20;99.90;;;;;;5034674;28;20217;-66
2021/03/19 10:59:09;;;;;;;2.50;1.80;;;4.80;99.90;;;;;;5034901;28;20224;-67
2021/03/19 11:01:44;;;;;;;4.35;2.38;;;4.80;99.90;;;;;;5034671;28;20181;-68
2021/03/19 11:04:32;;;;;;;4.93;1.85;;;4.70;99.90;;;;;;5034244;28;20204;-67
2021/03/19 11:07:17;;;;;;;3.03;1.63;;;4.60;99.90;;;;;;5033997;28;20231;-67
2021/03/19 11:10:06;;;;;;;1.98;1.60;;;4.30;99.90;;;;;;5034262;28;20269;-67
2021/03/19 11:12:36;;;;;;;1.48;0.90;;;4.10;99.90;;;;;;5034364;28;20177;-67
2021/03/19 11:15:09;;;;;;;2.13;1.33;;;4.00;99.90;;;;;;5034473;28;20608;-66
2021/03/19 11:17:36;;;;;;;2.13;1.80;;;3.70;99.90;;;;;;5034541;28;20205;-67
2021/03/19 11:20:11;;;;;;;1.75;1.15;;;3.50;99.90;;;;;;5034653;28;20586;-67
2021/03/19 11:22:40;;;;;;;1.75;1.00;;;3.50;99.90;;;;;;5034497;28;20197;-70
2021/03/19 11:25:22;;;;;;;0.90;0.60;;;3.70;99.90;;;;;;5034259;28;20643;-67
2021/03/19 11:27:50;;;;;;;1.67;1.20;;;3.90;99.90;;;;;;5034193;28;20204;-68
2021/03/19 11:30:32;;;;;;;0.85;0.63;;;4.10;99.90;;;;;;5033686;28;20182;-66
2021/03/19 11:33:04;;;;;;;1.65;1.30;;;4.50;99.90;;;;;;5032486;28;20204;-67
2021/03/19 11:35:33;;;;;;;0.90;0.70;;;4.80;99.90;;;;;;5032080;28;20239;-68
2021/03/19 11:38:00;;;;;;;1.52;1.02;;;4.80;99.90;;;;;;5033349;28;20240;-67
2021/03/19 11:40:39;;;;;;;1.60;0.98;;;4.60;99.90;;;;;;5033103;28;20174;-68
2021/03/19 11:43:10;;;;;;;1.00;0.85;;;4.40;99.90;;;;;;5033255;28;20697;-68
2021/03/19 11:45:40;;;;;;;2.53;1.50;;;4.30;99.90;;;;;;5015551;28;20665;-66
2021/03/19 11:48:22;;;;;;;1.63;0.68;;;4.40;99.90;;;;;;5033078;28;20196;-66
2021/03/19 11:50:51;;;;;;;1.63;0.93;;;4.40;99.90;;;;;;5015373;28;20232;-68
2021/03/19 11:53:20;;;;;;;3.28;1.08;;;4.40;99.90;;;;;;5033144;28;20200;-67
2021/03/19 11:55:50;;;;;;;1.20;0.90;;;4.50;99.90;;;;;;5032845;28;20620;-66
2021/03/19 11:58:21;;;;;;;5.13;1.35;;;4.50;99.90;;;;;;5032987;28;20190;-66
2021/03/19 12:00:50;;;;;;;2.75;0.80;;;4.40;99.90;;;;;;5033059;28;20175;-66
2021/03/19 12:03:24;;;;;;;1.95;1.10;;;4.20;99.90;;;;;;5032730;28;20251;-66
2021/03/19 12:05:52;;;;;;;2.83;1.20;;;4.00;99.90;;;;;;5031872;28;20224;-67
2021/03/19 12:08:19;;;;;;;0.80;0.60;;;4.20;99.90;;;;;;5014103;28;20189;-68
2021/03/19 12:10:46;;;;;;;1.08;0.93;;;4.60;99.90;;;;;;5016601;28;20754;-67
2021/03/19 12:13:15;;;;;;;4.82;1.67;;;5.00;99.90;;;;;;5005979;28;20243;-67
2021/03/19 12:15:43;;;;;;;1.20;0.85;;;5.40;99.90;;;;;;5021653;28;20209;-68
2021/03/19 12:18:12;;;;;;;2.30;1.85;;;5.10;99.90;;;;;;5023004;28;20186;-68
2021/03/19 12:20:40;;;;;;;1.45;1.00;;;4.80;99.90;;;;;;5013248;28;20202;-67
2021/03/19 12:23:07;;;;;;;1.75;1.55;;;4.60;99.90;;;;;;5012792;28;20539;-67
2021/03/19 12:25:38;;;;;;;1.77;1.05;;;4.50;99.90;;;;;;5013151;28;20297;-66
2021/03/19 12:28:06;;;;;;;3.90;1.40;;;4.20;99.90;;;;;;5013094;28;20539;-66
2021/03/19 12:30:34;;;;;;;1.63;1.00;;;4.00;99.90;;;;;;5012712;28;20708;-70
2021/03/19 12:33:01;;;;;;;3.80;1.67;;;4.00;99.90;;;;;;5014393;28;20177;-71
2021/03/19 12:35:30;;;;;;;4.50;1.00;;;4.30;99.90;;;;;;5012704;28;20201;-69
2021/03/19 12:37:58;;;;;;;6.00;1.55;;;4.40;99.90;;;;;;5012738;28;20261;-71
2021/03/19 12:40:28;;;;;;;1.30;0.88;;;4.40;99.90;;;;;;5012458;28;20178;-70
2021/03/19 12:42:56;;;;;;;3.35;1.48;;;4.40;99.90;;;;;;5014791;28;20180;-73
2021/03/19 12:45:28;;;;;;;1.10;0.80;;;4.30;99.90;;;;;;5032993;28;20265;-70
2021/03/19 12:47:58;;;;;;;3.88;1.25;;;4.10;99.90;;;;;;5017553;28;20647;-71
2021/03/19 12:50:28;;;;;;;1.25;0.70;;;4.20;99.90;;;;;;5013459;28;20177;-73
2021/03/19 12:53:00;;;;;;;1.00;0.70;;;4.10;99.90;;;;;;5013322;28;20189;-72
2021/03/19 12:55:30;;;;;;;1.50;1.10;;;3.90;99.90;;;;;;5013240;28;20228;-74
2021/03/19 12:57:59;;;;;;;1.40;0.82;;;4.00;99.90;;;;;;4995498;28;20189;-72
2021/03/19 13:00:30;;;;;;;1.52;1.10;;;3.90;99.90;;;;;;5012951;28;20713;-71
2021/03/19 13:02:59;;;;;;;1.65;1.05;;;3.80;99.90;;;;;;5012567;28;20573;-72
2021/03/19 13:05:29;;;;;;;1.67;1.20;;;4.10;99.90;;;;;;5012751;28;20721;-70
2021/03/19 13:07:56;;;;;;;1.23;1.13;;;4.10;99.90;;;;;;5012320;28;20178;-69
2021/03/19 13:10:26;;;;;;;1.85;0.90;;;4.30;99.90;;;;;;5012651;28;20585;-69
2021/03/19 13:12:55;;;;;;;6.72;1.02;;;4.30;99.90;;;;;;5012639;28;20261;-70
2021/03/19 13:15:25;;;;;;;2.90;1.05;;;4.40;99.90;;;;;;5012686;28;20584;-70
2021/03/19 13:17:54;;;;;;;3.42;2.58;;;4.50;99.90;;;;;;5012990;28;20179;-69
2021/03/19 13:20:23;;;;;;;3.40;1.98;;;4.40;99.90;;;;;;5012675;28;20178;-69
2021/03/19 13:22:50;;;;;;;1.80;1.55;;;4.60;99.90;;;;;;5012804;28;20607;-71
2021/03/19 13:25:23;;;;;;;2.45;1.90;;;4.70;99.90;;;;;;5012640;28;20261;-70
2021/03/19 13:27:51;;;;;;;5.72;1.55;;;4.80;99.90;;;;;;5012915;28;20265;-71